Time;durP1;ratioP1;P1;durP2;ratioP2;P2;SDS_P1;SDS_P2;PMS_P1;PMS_P2;Temp;Humidity;BMP_temperature;BMP_pressure;BME280_temperature;BME280_humidity;BME280_pressure;Samples;Min_cycle;Max_cycle;Signal;HPM_P1;HPM_P2
2023/11/10 00:04:22;;;;;;;16.50;12.10;;;;;;;3.80;91.15;98606.35;435683;1257;138680;-60
2023/11/10 00:14:29;;;;;;;17.10;12.40;;;;;;;3.72;91.69;98599.64;435959;1254;138483;-60
2023/11/10 00:24:45;;;;;;;17.80;11.00;;;;;;;3.64;92.20;98596.73;435047;1256;139722;-59
2023/11/10 00:34:52;;;;;;;14.50;10.80;;;;;;;3.58;93.11;98593.98;434933;1253;138538;-60
2023/11/10 00:44:58;;;;;;;16.60;10.90;;;;;;;3.55;93.63;98583.39;436129;1253;138646;-60
2023/11/10 00:55:06;;;;;;;22.20;13.10;;;;;;;3.57;94.39;98569.09;436494;1252;139816;-60
2023/11/10 01:05:14;;;;;;;15.20;11.30;;;;;;;3.60;94.90;98565.98;435246;1253;138562;-59
2023/11/10 01:15:21;;;;;;;14.10;10.40;;;;;;;3.64;95.28;98556.77;437077;1253;138791;-60
2023/11/10 01:25:28;;;;;;;15.50;10.80;;;;;;;3.72;95.85;98550.34;436657;1256;138474;-60
2023/11/10 01:35:34;;;;;;;12.60;9.70;;;;;;;3.75;95.74;98533.15;434932;1254;139524;-60
2023/11/10 01:45:40;;;;;;;11.50;9.20;;;;;;;3.72;96.25;98521.73;435477;1254;138569;-60
2023/11/10 01:55:48;;;;;;;13.40;9.30;;;;;;;3.74;96.76;98518.91;435527;1257;138226;-60
2023/11/10 02:05:55;;;;;;;11.60;8.10;;;;;;;3.84;97.67;98506.77;435423;1256;138722;-61
2023/11/10 02:16:01;;;;;;;9.40;7.50;;;;;;;4.02;98.18;98505.28;435214;1253;139275;-60
2023/11/10 02:26:08;;;;;;;11.90;8.20;;;;;;;4.12;98.04;98497.10;435343;1253;138156;-60
2023/11/10 02:36:14;;;;;;;12.80;8.80;;;;;;;4.22;97.88;98480.30;435509;1257;138851;-59
2023/11/10 02:46:20;;;;;;;12.40;9.00;;;;;;;4.32;97.94;98462.92;435074;1257;139504;-60
2023/11/10 02:56:27;;;;;;;10.60;7.70;;;;;;;4.39;97.76;98465.11;434926;1254;138862;-60
2023/11/10 03:06:33;;;;;;;10.90;8.10;;;;;;;4.43;97.53;98454.51;435761;1253;138886;-60
2023/11/10 03:16:40;;;;;;;10.60;7.30;;;;;;;4.44;97.49;98453.08;435389;1256;138636;-59
2023/11/10 03:26:47;;;;;;;9.80;7.20;;;;;;;4.44;97.61;98454.80;434901;1257;138338;-60
2023/11/10 03:36:54;;;;;;;11.10;7.70;;;;;;;4.45;97.93;98446.75;434757;1257;139693;-60
2023/11/10 03:47:00;;;;;;;9.10;6.10;;;;;;;4.47;98.24;98441.60;434713;1258;139849;-61
2023/11/10 03:57:07;;;;;;;10.00;6.80;;;;;;;4.52;99.01;98432.85;434939;1253;138442;-60
2023/11/10 04:07:14;;;;;;;10.10;7.70;;;;;;;4.59;99.29;98422.05;434912;1258;138707;-60
2023/11/10 04:17:20;;;;;;;8.90;6.30;;;;;;;4.67;99.81;98415.86;435438;1253;139552;-61
2023/11/10 04:27:27;;;;;;;11.00;7.90;;;;;;;4.75;99.92;98401.91;435136;1253;140124;-60
2023/11/10 04:37:33;;;;;;;8.90;6.80;;;;;;;4.78;99.84;98396.67;436072;1253;140118;-60
2023/11/10 04:47:40;;;;;;;10.60;6.60;;;;;;;4.79;99.96;98386.08;435086;1259;138443;-60
2023/11/10 04:57:46;;;;;;;12.00;8.40;;;;;;;4.79;100.00;98386.05;435064;1257;138957;-59
2023/11/10 05:07:53;;;;;;;14.70;9.30;;;;;;;4.80;100.00;98378.55;435494;1253;139587;-60
2023/11/10 05:18:00;;;;;;;10.80;7.30;;;;;;;4.75;100.00;98375.70;435258;1259;138811;-60
2023/11/10 05:28:07;;;;;;;10.00;7.50;;;;;;;4.69;100.00;98374.84;435399;1253;138778;-60
2023/11/10 05:38:13;;;;;;;9.80;7.40;;;;;;;4.67;100.00;98379.11;435107;1256;138670;-60
2023/11/10 05:48:20;;;;;;;8.90;7.80;;;;;;;4.66;100.00;98380.77;434868;1255;139950;-61
2023/11/10 05:58:26;;;;;;;11.20;7.60;;;;;;;4.68;100.00;98382.71;435316;1254;138750;-59
2023/11/10 06:08:36;;;;;;;12.10;7.80;;;;;;;4.70;100.00;98379.14;435215;1253;138736;-60
2023/11/10 06:18:44;;;;;;;10.10;7.80;;;;;;;4.73;100.00;98399.20;435175;1256;139063;-60
2023/11/10 06:28:51;;;;;;;10.60;7.50;;;;;;;4.77;100.00;98400.69;435304;1257;138880;-60
2023/11/10 06:38:58;;;;;;;12.30;8.80;;;;;;;4.89;100.00;98407.33;435778;1256;139097;-60
2023/11/10 06:49:05;;;;;;;15.90;9.90;;;;;;;4.99;100.00;98418.00;435312;1253;138910;-60
2023/11/10 06:59:12;;;;;;;12.50;9.10;;;;;;;5.09;100.00;98408.40;436065;1257;140339;-59
2023/11/10 07:09:19;;;;;;;14.10;9.70;;;;;;;5.24;100.00;98422.91;434975;1259;140378;-58
2023/11/10 07:19:25;;;;;;;9.30;8.10;;;;;;;5.56;100.00;98422.59;435097;1253;140175;-60
2023/11/10 07:29:32;;;;;;;9.90;7.20;;;;;;;6.11;100.00;98423.81;435936;1254;138972;-63
2023/11/10 07:39:38;;;;;;;10.10;6.60;;;;;;;7.95;100.00;98415.19;435230;1257;139426;-63
2023/11/10 07:49:44;;;;;;;7.70;6.80;;;;;;;10.30;99.59;98405.80;436218;1254;138751;-63
2023/11/10 07:59:51;;;;;;;6.90;6.00;;;;;;;11.89;93.65;98404.81;435522;1255;138366;-61
2023/11/10 08:09:57;;;;;;;6.40;5.60;;;;;;;12.31;89.70;98403.73;435674;1256;138513;-75
2023/11/10 08:20:04;;;;;;;6.90;5.90;;;;;;;13.80;87.68;98403.36;435890;1256;138362;-71
2023/11/10 08:30:13;;;;;;;7.10;5.50;;;;;;;14.67;83.47;98391.41;438482;1254;139584;-66
2023/11/10 08:40:20;;;;;;;6.20;5.10;;;;;;;14.64;80.47;98381.80;435784;1254;138130;-65
2023/11/10 08:50:26;;;;;;;6.10;4.20;;;;;;;14.38;78.85;98379.42;436258;1255;138982;-68
2023/11/10 09:00:33;;;;;;;8.70;5.30;;;;;;;13.75;78.01;98379.20;436365;1254;138320;-68
2023/11/10 09:10:39;;;;;;;7.50;5.00;;;;;;;12.96;77.72;98384.48;436352;1253;139731;-65
2023/11/10 09:20:46;;;;;;;6.50;5.10;;;;;;;12.13;78.09;98383.52;435803;1256;138326;-72
2023/11/10 09:30:53;;;;;;;5.90;4.50;;;;;;;11.45;78.76;98378.61;436797;1254;139928;-67
2023/11/10 09:41:02;;;;;;;6.10;5.00;;;;;;;11.02;79.72;98380.52;434445;1253;1871726;-63
2023/11/10 09:51:10;;;;;;;5.70;4.80;;;;;;;10.80;80.56;98373.05;436599;1253;139032;-59
2023/11/10 10:01:17;;;;;;;6.10;5.00;;;;;;;10.88;81.07;98358.95;436317;1251;139737;-58
2023/11/10 10:11:24;;;;;;;6.30;4.70;;;;;;;11.02;81.10;98332.67;436546;1251;139707;-67
2023/11/10 10:21:40;;;;;;;9.50;4.90;;;;;;;11.07;80.87;98330.05;435738;1251;139701;-63
2023/11/10 10:31:46;;;;;;;6.40;4.60;;;;;;;11.21;80.94;98334.09;435590;1254;138629;-59
2023/11/10 10:41:54;;;;;;;6.50;3.70;;;;;;;11.26;80.21;98336.27;435911;1254;138957;-62
2023/11/10 10:52:02;;;;;;;6.70;4.90;;;;;;;11.16;79.66;98330.77;436958;1251;139534;-61
2023/11/10 11:02:13;;;;;;;6.10;4.70;;;;;;;11.08;79.78;98323.06;436280;1251;138594;-61
2023/11/10 11:12:45;;;;;;;4.80;3.60;;;;;;;11.32;79.57;98316.31;436113;1254;139145;-63
2023/11/10 11:22:52;;;;;;;5.10;4.30;;;;;;;11.63;79.20;98304.67;437576;1251;138593;-75
2023/11/10 11:33:00;;;;;;;5.40;4.20;;;;;;;11.76;78.48;98287.52;437871;1253;138479;-62
2023/11/10 11:43:13;;;;;;;7.10;4.50;;;;;;;11.74;77.91;98274.20;435884;1253;138783;-62
2023/11/10 11:53:23;;;;;;;8.10;5.10;;;;;;;11.73;77.92;98283.44;436551;1253;172299;-68
2023/11/10 12:03:30;;;;;;;6.90;4.10;;;;;;;11.76;77.52;98284.44;437211;1251;140179;-73
2023/11/10 12:13:36;;;;;;;4.80;4.30;;;;;;;11.75;77.37;98280.47;437280;1254;139002;-79
2023/11/10 12:23:43;;;;;;;7.80;4.50;;;;;;;11.64;76.76;98277.00;437903;1254;138659;-61
2023/11/10 12:33:49;;;;;;;3.60;2.90;;;;;;;11.55;76.52;98268.37;436336;1254;139569;-62
2023/11/10 12:43:57;;;;;;;5.30;3.20;;;;;;;11.47;75.31;98271.16;435951;1251;138977;-61
2023/11/10 12:54:06;;;;;;;6.50;3.50;;;;;;;11.28;75.01;98260.11;436454;1251;139409;-69
2023/11/10 13:04:13;;;;;;;7.60;3.90;;;;;;;11.09;75.07;98265.96;435885;1254;140303;-63
2023/11/10 13:14:20;;;;;;;4.70;3.20;;;;;;;10.86;74.73;98259.98;435901;1252;138611;-62
2023/11/10 13:24:26;;;;;;;5.00;3.70;;;;;;;10.56;74.84;98262.58;437171;1251;140355;-70
2023/11/10 13:34:32;;;;;;;5.20;3.50;;;;;;;10.25;75.29;98260.42;439742;1251;138872;-66
2023/11/10 13:44:39;;;;;;;5.90;3.80;;;;;;;10.03;76.05;98257.11;438206;1249;138663;-66
2023/11/10 13:54:46;;;;;;;7.40;5.30;;;;;;;9.95;76.58;98259.73;435330;1253;139762;-65
2023/11/10 14:04:52;;;;;;;9.90;5.50;;;;;;;9.93;77.01;98254.98;435772;1253;139575;-63
2023/11/10 14:15:01;;;;;;;7.90;5.20;;;;;;;9.89;77.27;98262.64;436011;1251;138884;-65
2023/11/10 14:25:09;;;;;;;15.20;6.10;;;;;;;9.76;77.52;98262.14;435442;1253;138686;-68
2023/11/10 14:35:16;;;;;;;8.80;5.60;;;;;;;9.57;77.95;98248.67;435317;1251;139952;-67
2023/11/10 14:45:22;;;;;;;21.20;11.80;;;;;;;9.35;78.38;98250.61;435318;1253;138654;-68
2023/11/10 14:55:29;;;;;;;13.70;8.90;;;;;;;9.09;78.89;98258.20;436818;1251;138718;-70
2023/11/10 15:05:35;;;;;;;21.60;11.50;;;;;;;8.87;79.52;98273.70;437091;1249;139776;-66
2023/11/10 15:15:46;;;;;;;12.20;9.40;;;;;;;8.70;80.03;98273.81;435798;1254;140030;-66
2023/11/10 15:25:54;;;;;;;15.50;9.70;;;;;;;8.52;80.41;98277.28;437868;1250;139121;-71
2023/11/10 15:36:00;;;;;;;16.20;11.80;;;;;;;8.32;80.94;98277.86;438712;1251;139257;-68
2023/11/10 15:46:07;;;;;;;20.40;11.70;;;;;;;8.08;81.82;98277.70;435787;1253;139505;-66
2023/11/10 15:56:13;;;;;;;22.00;18.70;;;;;;;7.80;82.64;98283.09;434898;1249;138837;-65
2023/11/10 16:06:20;;;;;;;20.50;13.20;;;;;;;7.62;83.70;98277.95;436225;1254;140580;-66
2023/11/10 16:16:27;;;;;;;21.10;16.90;;;;;;;7.45;83.92;98278.66;435704;1251;139347;-65
2023/11/10 16:26:33;;;;;;;28.60;20.70;;;;;;;7.22;84.40;98272.96;435909;1250;139352;-65
2023/11/10 16:36:40;;;;;;;29.70;21.20;;;;;;;7.01;85.08;98272.65;436764;1253;139411;-65
2023/11/10 16:46:46;;;;;;;23.60;15.00;;;;;;;6.88;86.12;98262.77;435400;1251;139481;-64
2023/11/10 16:56:53;;;;;;;32.80;21.80;;;;;;;6.93;87.57;98260.04;435574;1251;138788;-65
2023/11/10 17:06:59;;;;;;;24.80;19.00;;;;;;;6.98;87.59;98271.49;435939;1251;139663;-62
2023/11/10 17:17:07;;;;;;;30.30;22.20;;;;;;;6.96;87.89;98269.39;436460;1251;139138;-64
2023/11/10 17:27:13;;;;;;;38.50;28.30;;;;;;;6.91;88.07;98275.60;436143;1248;140609;-63
2023/11/10 17:37:23;;;;;;;34.80;25.00;;;;;;;6.76;88.25;98275.45;435907;1251;139899;-64
2023/11/10 17:47:29;;;;;;;32.70;22.80;;;;;;;6.60;88.90;98272.04;437767;1253;141752;-63
2023/11/10 17:57:36;;;;;;;32.70;23.00;;;;;;;6.42;89.30;98259.15;435740;1251;139198;-63
2023/11/10 18:07:43;;;;;;;43.60;30.60;;;;;;;6.26;90.11;98256.94;436814;1251;138726;-65
2023/11/10 18:17:49;;;;;;;37.20;26.00;;;;;;;6.14;91.14;98258.20;435482;1250;138864;-65
2023/11/10 18:27:56;;;;;;;41.60;26.70;;;;;;;6.12;92.10;98250.36;436172;1251;139845;-65
2023/11/10 18:38:02;;;;;;;36.60;24.20;;;;;;;6.12;93.07;98249.52;436240;1251;138789;-65
2023/11/10 18:48:08;;;;;;;27.80;21.60;;;;;;;6.13;93.80;98242.98;436935;1253;138763;-64
2023/11/10 18:58:15;;;;;;;35.80;25.90;;;;;;;6.13;94.51;98237.80;437122;1251;139276;-65
2023/11/10 19:08:21;;;;;;;36.60;24.60;;;;;;;6.13;95.12;98232.08;436485;1251;139100;-65
2023/11/10 19:18:28;;;;;;;41.40;28.10;;;;;;;6.11;95.79;98226.83;435978;1250;139500;-65
2023/11/10 19:28:34;;;;;;;36.50;26.60;;;;;;;6.06;96.56;98223.86;436369;1253;139179;-71
2023/11/10 19:38:41;;;;;;;36.30;26.10;;;;;;;5.96;96.98;98218.20;436061;1250;138884;-71
2023/11/10 19:48:49;;;;;;;36.00;27.60;;;;;;;5.85;97.80;98218.41;435662;1251;138759;-71
2023/11/10 19:58:56;;;;;;;39.20;27.40;;;;;;;5.77;98.51;98221.73;437124;1252;138935;-72
2023/11/10 20:09:06;;;;;;;35.80;27.30;;;;;;;5.71;99.05;98218.64;435908;1251;138889;-70
2023/11/10 20:19:14;;;;;;;35.90;23.90;;;;;;;5.65;99.75;98221.84;436137;1253;138738;-70
2023/11/10 20:29:21;;;;;;;35.90;25.70;;;;;;;5.57;100.00;98221.12;435965;1254;139309;-71
2023/11/10 20:39:30;;;;;;;31.00;24.80;;;;;;;5.51;100.00;98216.84;435598;1250;139355;-70
2023/11/10 20:49:36;;;;;;;31.50;23.00;;;;;;;5.48;100.00;98221.34;435562;1250;138849;-70
2023/11/10 20:59:43;;;;;;;31.20;24.60;;;;;;;5.50;100.00;98216.52;436006;1251;139527;-70
2023/11/10 21:09:49;;;;;;;35.10;25.70;;;;;;;5.52;100.00;98208.27;436125;1253;139642;-71
2023/11/10 21:19:55;;;;;;;31.50;27.50;;;;;;;5.54;100.00;98202.39;437789;1251;139122;-70
2023/11/10 21:30:02;;;;;;;38.20;28.80;;;;;;;5.54;100.00;98202.37;436213;1254;139195;-71
2023/11/10 21:40:13;;;;;;;32.80;25.10;;;;;;;5.56;100.00;98188.52;436194;1251;140740;-71
2023/11/10 21:50:20;;;;;;;34.20;26.90;;;;;;;5.56;100.00;98177.25;436313;1250;139430;-71
2023/11/10 22:00:27;;;;;;;35.60;26.40;;;;;;;5.53;100.00;98173.80;435932;1250;139456;-70
2023/11/10 22:10:32;;;;;;;;;;;;;;;5.50;100.00;98170.21;438777;1250;139184;-71
2023/11/10 22:20:39;;;;;;;23.50;20.90;;;;;;;5.45;100.00;98165.48;437138;1253;125589;-70
2023/11/10 22:30:45;;;;;;;26.20;21.80;;;;;;;5.42;100.00;98155.27;435821;1250;139383;-71
2023/11/10 22:40:52;;;;;;;28.00;22.10;;;;;;;5.43;100.00;98153.46;436342;1254;139431;-69
2023/11/10 22:50:58;;;;;;;25.80;21.70;;;;;;;5.42;100.00;98141.73;437540;1251;139180;-72
2023/11/10 23:01:05;;;;;;;29.80;22.00;;;;;;;5.42;100.00;98134.78;436569;1253;139125;-71
2023/11/10 23:11:14;;;;;;;23.80;20.70;;;;;;;5.43;100.00;98130.04;437513;1250;139458;-70
2023/11/10 23:21:22;;;;;;;25.10;20.10;;;;;;;5.41;100.00;98125.82;436492;1253;139510;-70
2023/11/10 23:31:29;;;;;;;23.40;19.90;;;;;;;5.39;100.00;98125.61;435943;1253;139313;-70
2023/11/10 23:41:36;;;;;;;25.70;20.10;;;;;;;5.36;100.00;98114.16;436405;1254;139054;-70
2023/11/10 23:51:43;;;;;;;23.30;19.00;;;;;;;5.34;100.00;98103.05;436213;1255;156801;-69
